Time;durP1;ratioP1;P1;durP2;ratioP2;P2;SDS_P1;SDS_P2;PMS_P1;PMS_P2;Temp;Humidity;BMP_temperature;BMP_pressure;BME280_temperature;BME280_humidity;BME280_pressure;Samples;Min_cycle;Max_cycle;Signal;HPM_P1;HPM_P2
2023/08/25 00:00:50;;;;;;;11.38;10.88;;;;;;;;;;5093472;28;20027;-63
2023/08/25 00:03:15;;;;;;;11.60;11.10;;;;;;;;;;5094548;28;20104;-64
2023/08/25 00:05:41;;;;;;;11.80;11.30;;;;;;;;;;5095440;28;20044;-63
2023/08/25 00:08:06;;;;;;;11.52;11.02;;;;;;;;;;5093555;28;20036;-62
2023/08/25 00:10:32;;;;;;;11.93;11.43;;;;;;;;;;5097420;28;20040;-63
2023/08/25 00:12:58;;;;;;;11.57;11.07;;;;;;;;;;5090367;28;20019;-62
2023/08/25 00:15:23;;;;;;;11.60;11.10;;;;;;;;;;5099581;28;20387;-63
2023/08/25 00:17:49;;;;;;;11.40;10.90;;;;;;;;;;5092802;28;20048;-62
2023/08/25 00:20:14;;;;;;;11.57;11.07;;;;;;;;;;5099319;28;20024;-62
2023/08/25 00:22:40;;;;;;;11.40;10.90;;;;;;;;;;5089966;28;20020;-62
2023/08/25 00:25:06;;;;;;;12.00;11.50;;;;;;;;;;5097043;28;20367;-62
2023/08/25 00:27:31;;;;;;;11.57;11.07;;;;;;;;;;5093531;28;20027;-63
2023/08/25 00:29:56;;;;;;;11.68;11.18;;;;;;;;;;5088597;28;20035;-63
2023/08/25 00:32:22;;;;;;;11.45;10.95;;;;;;;;;;5092657;28;20418;-62
2023/08/25 00:34:47;;;;;;;11.73;11.23;;;;;;;;;;5093833;28;20020;-63
2023/08/25 00:37:12;;;;;;;11.38;10.88;;;;;;;;;;5097558;28;20024;-62
2023/08/25 00:39:38;;;;;;;11.57;11.07;;;;;;;;;;5095549;28;20519;-63
2023/08/25 00:42:03;;;;;;;11.48;10.98;;;;;;;;;;5090597;28;20375;-63
2023/08/25 00:44:29;;;;;;;11.40;10.90;;;;;;;;;;5093743;28;20486;-63
2023/08/25 00:46:54;;;;;;;11.33;10.83;;;;;;;;;;5093145;28;20475;-64
2023/08/25 00:49:20;;;;;;;11.52;11.02;;;;;;;;;;5099092;28;20339;-62
2023/08/25 00:51:45;;;;;;;11.43;10.93;;;;;;;;;;5090557;28;20027;-62
2023/08/25 00:54:11;;;;;;;11.32;10.82;;;;;;;;;;5088805;28;20467;-63
2023/08/25 00:56:36;;;;;;;11.25;10.75;;;;;;;;;;5090424;28;20035;-63
2023/08/25 00:59:02;;;;;;;11.40;10.90;;;;;;;;;;5091273;28;20024;-63
2023/08/25 01:01:28;;;;;;;11.63;11.13;;;;;;;;;;5098367;28;20051;-62
2023/08/25 01:03:53;;;;;;;11.13;10.63;;;;;;;;;;5087582;28;20140;-62
2023/08/25 01:06:19;;;;;;;11.98;11.48;;;;;;;;;;5068564;28;20023;-63
2023/08/25 01:08:44;;;;;;;11.40;10.90;;;;;;;;;;5095362;28;20089;-63
2023/08/25 01:11:28;;;;;;;11.55;11.05;;;;;;;;;;5093911;28;20103;-63
2023/08/25 01:14:09;;;;;;;11.13;10.63;;;;;;;;;;5086387;28;20078;-64
2023/08/25 01:16:42;;;;;;;11.35;10.85;;;;;;;;;;5091019;28;20039;-62
2023/08/25 01:19:20;;;;;;;11.57;11.07;;;;;;;;;;5095320;28;20024;-63
2023/08/25 01:21:50;;;;;;;11.90;11.40;;;;;;;;;;5091491;28;20024;-61
2023/08/25 01:24:19;;;;;;;11.50;11.00;;;;;;;;;;5092801;28;20692;-63
2023/08/25 01:26:45;;;;;;;11.60;11.10;;;;;;;;;;5098335;28;20038;-63
2023/08/25 01:29:10;;;;;;;12.00;11.50;;;;;;;;;;5099664;28;20012;-63
2023/08/25 01:31:35;;;;;;;11.40;10.90;;;;;;;;;;5103564;28;20471;-63
2023/08/25 01:34:01;;;;;;;11.60;11.10;;;;;;;;;;5100255;28;20054;-62
2023/08/25 01:36:41;;;;;;;11.52;11.02;;;;;;;;;;5098607;28;20024;-63
2023/08/25 01:39:10;;;;;;;11.48;10.98;;;;;;;;;;5089594;28;20019;-63
2023/08/25 01:41:42;;;;;;;11.40;10.90;;;;;;;;;;5108940;28;20081;-62
2023/08/25 01:44:07;;;;;;;12.50;11.90;;;;;;;;;;5095929;28;20102;-64
2023/08/25 01:46:34;;;;;;;11.60;11.10;;;;;;;;;;5088533;28;20455;-63
2023/08/25 01:49:00;;;;;;;11.90;11.40;;;;;;;;;;5101143;28;20437;-62
2023/08/25 01:51:27;;;;;;;11.65;11.15;;;;;;;;;;5092752;28;20028;-63
2023/08/25 01:53:56;;;;;;;11.60;11.10;;;;;;;;;;5095538;28;20057;-63
2023/08/25 01:56:21;;;;;;;11.60;11.10;;;;;;;;;;5093788;28;20107;-62
2023/08/25 01:58:47;;;;;;;11.82;11.32;;;;;;;;;;5098530;28;20511;-63
2023/08/25 02:01:12;;;;;;;11.57;11.07;;;;;;;;;;5096319;28;20019;-62
2023/08/25 02:03:38;;;;;;;11.50;11.00;;;;;;;;;;5103018;28;20027;-62
2023/08/25 02:06:03;;;;;;;11.60;11.10;;;;;;;;;;5100526;28;20044;-62
2023/08/25 02:08:28;;;;;;;11.10;10.60;;;;;;;;;;5098395;28;20589;-63
2023/08/25 02:10:54;;;;;;;12.10;11.60;;;;;;;;;;5096548;28;20593;-63
2023/08/25 02:13:19;;;;;;;11.80;11.30;;;;;;;;;;5103790;28;20031;-63
2023/08/25 02:15:47;;;;;;;11.65;11.15;;;;;;;;;;5102554;28;20438;-63
2023/08/25 02:18:13;;;;;;;11.77;11.27;;;;;;;;;;5104421;28;20490;-63
2023/08/25 02:20:39;;;;;;;11.25;10.75;;;;;;;;;;5094484;28;20028;-63
2023/08/25 02:23:04;;;;;;;11.70;11.20;;;;;;;;;;5094197;28;20016;-63
2023/08/25 02:25:29;;;;;;;11.40;10.90;;;;;;;;;;5099004;28;20462;-63
2023/08/25 02:27:56;;;;;;;11.65;11.15;;;;;;;;;;5074133;28;20368;-63
2023/08/25 02:30:21;;;;;;;11.65;11.15;;;;;;;;;;5090624;28;20027;-63
2023/08/25 02:32:47;;;;;;;11.63;11.13;;;;;;;;;;5098598;28;20016;-62
2023/08/25 02:35:12;;;;;;;11.63;11.13;;;;;;;;;;5092367;28;20498;-62
2023/08/25 02:37:54;;;;;;;11.73;11.23;;;;;;;;;;5095187;28;20107;-63
2023/08/25 02:40:20;;;;;;;11.25;10.75;;;;;;;;;;5096828;28;20054;-63
2023/08/25 02:42:45;;;;;;;11.65;11.15;;;;;;;;;;5102104;28;20125;-63
2023/08/25 02:45:11;;;;;;;11.90;11.40;;;;;;;;;;5096614;28;20015;-64
2023/08/25 02:47:36;;;;;;;11.40;10.90;;;;;;;;;;5095323;28;20424;-63
2023/08/25 02:50:03;;;;;;;11.40;10.90;;;;;;;;;;5099585;28;20122;-63
2023/08/25 02:52:28;;;;;;;11.60;11.10;;;;;;;;;;5097265;28;20073;-63
2023/08/25 02:54:53;;;;;;;11.60;11.10;;;;;;;;;;5094962;28;20032;-63
2023/08/25 02:57:18;;;;;;;11.73;11.23;;;;;;;;;;5095544;28;20462;-63
2023/08/25 02:59:44;;;;;;;11.23;10.73;;;;;;;;;;5099173;28;20023;-63
2023/08/25 03:02:09;;;;;;;11.70;11.20;;;;;;;;;;5095594;28;20106;-63
2023/08/25 03:04:34;;;;;;;11.55;11.05;;;;;;;;;;5094769;28;20582;-62
2023/08/25 03:07:00;;;;;;;11.60;11.10;;;;;;;;;;5084802;28;20036;-63
2023/08/25 03:09:26;;;;;;;11.70;11.20;;;;;;;;;;5096651;28;20029;-64
2023/08/25 03:11:51;;;;;;;11.50;11.00;;;;;;;;;;5091602;28;20016;-63
2023/08/25 03:14:18;;;;;;;11.45;10.95;;;;;;;;;;5094921;28;20034;-64
2023/08/25 03:16:43;;;;;;;11.70;11.20;;;;;;;;;;5093682;28;20027;-63
2023/08/25 03:19:08;;;;;;;11.15;10.65;;;;;;;;;;5094230;28;20115;-63
2023/08/25 03:21:34;;;;;;;11.75;11.25;;;;;;;;;;5093426;28;20028;-63
2023/08/25 03:23:59;;;;;;;11.47;10.97;;;;;;;;;;5093523;28;20039;-63
2023/08/25 03:26:24;;;;;;;11.32;10.82;;;;;;;;;;5089123;28;20297;-63
2023/08/25 03:28:51;;;;;;;11.50;11.00;;;;;;;;;;5095054;28;20016;-63
2023/08/25 03:31:16;;;;;;;12.00;11.50;;;;;;;;;;5095854;28;20039;-63
2023/08/25 03:33:41;;;;;;;11.63;11.13;;;;;;;;;;5089807;28;20020;-63
2023/08/25 03:36:07;;;;;;;11.82;11.32;;;;;;;;;;5103952;28;20395;-63
2023/08/25 03:38:32;;;;;;;11.55;11.05;;;;;;;;;;5093495;28;20020;-63
2023/08/25 03:40:58;;;;;;;12.00;11.50;;;;;;;;;;5094214;28;20352;-63
2023/08/25 03:43:23;;;;;;;11.48;10.98;;;;;;;;;;5093202;28;20502;-63
2023/08/25 03:45:49;;;;;;;11.50;11.00;;;;;;;;;;5095818;28;20028;-63
2023/08/25 03:48:14;;;;;;;11.50;11.00;;;;;;;;;;5095267;28;20027;-62
2023/08/25 03:50:39;;;;;;;11.60;11.10;;;;;;;;;;5096469;28;20031;-62
2023/08/25 03:53:05;;;;;;;11.50;11.00;;;;;;;;;;5090583;28;20582;-63
2023/08/25 03:55:30;;;;;;;11.63;11.13;;;;;;;;;;5097058;28;20039;-63
2023/08/25 03:57:55;;;;;;;12.13;11.60;;;;;;;;;;5089324;28;20059;-63
2023/08/25 04:00:20;;;;;;;11.23;10.73;;;;;;;;;;5093953;28;20063;-64
2023/08/25 04:02:54;;;;;;;11.52;11.02;;;;;;;;;;5103597;27;20403;-63
2023/08/25 04:05:20;;;;;;;12.40;11.80;;;;;;;;;;5103896;28;20036;-63
2023/08/25 04:07:45;;;;;;;11.73;11.23;;;;;;;;;;5105425;28;20020;-64
2023/08/25 04:10:10;;;;;;;11.40;10.90;;;;;;;;;;5101677;28;20066;-62
2023/08/25 04:12:36;;;;;;;11.65;11.15;;;;;;;;;;5098145;28;20049;-61
2023/08/25 04:15:01;;;;;;;12.40;11.80;;;;;;;;;;5101891;28;20048;-62
2023/08/25 04:17:26;;;;;;;11.80;11.30;;;;;;;;;;5101832;27;20013;-63
2023/08/25 04:19:52;;;;;;;11.65;11.15;;;;;;;;;;5101937;28;20118;-63
2023/08/25 04:22:17;;;;;;;11.70;11.20;;;;;;;;;;5106821;28;20108;-62
2023/08/25 04:24:42;;;;;;;11.25;10.75;;;;;;;;;;5105156;28;20070;-64
2023/08/25 04:27:08;;;;;;;11.93;11.43;;;;;;;;;;5104923;28;20016;-61
2023/08/25 04:29:33;;;;;;;11.40;10.90;;;;;;;;;;5101048;28;20020;-61
2023/08/25 04:31:58;;;;;;;11.40;10.90;;;;;;;;;;5101084;28;20024;-61
2023/08/25 04:34:24;;;;;;;11.68;11.18;;;;;;;;;;5101611;27;20034;-60
2023/08/25 04:36:49;;;;;;;11.32;10.82;;;;;;;;;;5105961;28;20020;-61
2023/08/25 04:39:14;;;;;;;11.45;10.95;;;;;;;;;;5102715;28;20054;-60
2023/08/25 04:41:40;;;;;;;12.05;11.55;;;;;;;;;;5094216;28;20021;-61
2023/08/25 04:44:06;;;;;;;11.88;11.38;;;;;;;;;;5097159;28;20019;-61
2023/08/25 04:46:31;;;;;;;11.88;11.38;;;;;;;;;;5103851;28;20019;-61
2023/08/25 04:48:57;;;;;;;11.40;10.90;;;;;;;;;;5102485;28;20382;-60
2023/08/25 04:51:22;;;;;;;11.90;11.40;;;;;;;;;;5105064;28;20034;-61
2023/08/25 04:53:47;;;;;;;11.82;11.32;;;;;;;;;;5095791;28;20570;-60
2023/08/25 04:56:13;;;;;;;11.48;10.98;;;;;;;;;;5097535;28;20112;-61
2023/08/25 04:58:38;;;;;;;11.30;10.80;;;;;;;;;;5103036;28;20030;-61
2023/08/25 05:01:04;;;;;;;11.80;11.30;;;;;;;;;;5095191;28;20040;-61
2023/08/25 05:03:29;;;;;;;12.52;11.93;;;;;;;;;;5092252;28;20470;-60
2023/08/25 05:05:54;;;;;;;11.98;11.48;;;;;;;;;;5096971;28;20058;-60
2023/08/25 05:08:20;;;;;;;11.90;11.40;;;;;;;;;;5097062;27;20058;-62
2023/08/25 05:10:45;;;;;;;11.80;11.30;;;;;;;;;;5095467;28;20086;-61
2023/08/25 05:13:10;;;;;;;11.98;11.48;;;;;;;;;;5080502;28;20036;-60
2023/08/25 05:15:36;;;;;;;11.88;11.38;;;;;;;;;;5084964;28;20507;-61
2023/08/25 05:18:01;;;;;;;11.80;11.30;;;;;;;;;;5082032;28;20076;-60
2023/08/25 05:20:26;;;;;;;11.77;11.27;;;;;;;;;;5080016;28;20029;-61
2023/08/25 05:22:52;;;;;;;11.93;11.43;;;;;;;;;;5079148;28;20024;-61
2023/08/25 05:25:20;;;;;;;12.38;11.82;;;;;;;;;;5077584;28;21301;-62
2023/08/25 05:27:46;;;;;;;11.32;10.82;;;;;;;;;;5084367;28;20054;-61
2023/08/25 05:30:11;;;;;;;12.05;11.55;;;;;;;;;;5081194;28;20028;-61
2023/08/25 05:32:37;;;;;;;11.60;11.10;;;;;;;;;;5076510;28;20213;-61
2023/08/25 05:35:03;;;;;;;12.00;11.50;;;;;;;;;;5081141;28;20480;-61
2023/08/25 05:37:29;;;;;;;12.10;11.60;;;;;;;;;;5080679;28;20073;-60
2023/08/25 05:39:54;;;;;;;11.98;11.48;;;;;;;;;;5081455;28;20483;-62
2023/08/25 05:42:19;;;;;;;12.20;11.70;;;;;;;;;;5084773;28;20518;-61
2023/08/25 05:44:45;;;;;;;11.60;11.10;;;;;;;;;;5081672;28;20028;-61
2023/08/25 05:47:10;;;;;;;11.80;11.30;;;;;;;;;;5080575;28;20024;-61
2023/08/25 05:49:35;;;;;;;11.77;11.27;;;;;;;;;;5079894;28;20115;-62
2023/08/25 05:52:00;;;;;;;12.00;11.50;;;;;;;;;;5083096;28;20044;-62
2023/08/25 05:54:26;;;;;;;11.73;11.23;;;;;;;;;;5078785;28;20032;-60
2023/08/25 05:56:52;;;;;;;11.75;11.25;;;;;;;;;;5076701;28;20055;-61
2023/08/25 05:59:17;;;;;;;12.15;11.65;;;;;;;;;;5076683;28;20012;-62
2023/08/25 06:01:43;;;;;;;12.13;11.63;;;;;;;;;;5080082;28;20529;-61
2023/08/25 06:04:08;;;;;;;12.00;11.50;;;;;;;;;;5082207;28;20013;-60
2023/08/25 06:06:34;;;;;;;12.43;11.85;;;;;;;;;;5082365;28;20023;-60
2023/08/25 06:08:59;;;;;;;12.50;11.90;;;;;;;;;;5083294;28;20020;-60
2023/08/25 06:11:24;;;;;;;12.05;11.55;;;;;;;;;;5079980;28;20055;-60
2023/08/25 06:13:50;;;;;;;11.63;11.13;;;;;;;;;;5080447;28;20060;-60
2023/08/25 06:16:15;;;;;;;11.82;11.32;;;;;;;;;;5082940;28;20032;-60
2023/08/25 06:18:41;;;;;;;11.70;11.20;;;;;;;;;;5081364;28;20052;-60
2023/08/25 06:21:07;;;;;;;11.80;11.30;;;;;;;;;;5085197;28;20371;-61
2023/08/25 06:23:33;;;;;;;11.90;11.40;;;;;;;;;;5082146;28;20050;-62
2023/08/25 06:25:59;;;;;;;12.13;11.63;;;;;;;;;;5080755;28;20020;-60
2023/08/25 06:28:25;;;;;;;12.30;11.80;;;;;;;;;;5081718;28;20028;-62
2023/08/25 06:30:51;;;;;;;12.05;11.55;;;;;;;;;;5083988;28;20031;-61
2023/08/25 06:33:16;;;;;;;12.05;11.55;;;;;;;;;;5084919;28;20020;-60
2023/08/25 06:35:42;;;;;;;11.93;11.43;;;;;;;;;;5082129;28;20033;-61
2023/08/25 06:38:07;;;;;;;12.02;11.52;;;;;;;;;;5080041;28;20074;-60
2023/08/25 06:40:34;;;;;;;12.10;11.60;;;;;;;;;;5083491;28;20016;-61
2023/08/25 06:43:00;;;;;;;11.95;11.45;;;;;;;;;;5082724;28;20422;-60
2023/08/25 06:45:25;;;;;;;12.00;11.50;;;;;;;;;;5085102;28;20102;-60
2023/08/25 06:47:50;;;;;;;12.27;11.77;;;;;;;;;;5082891;28;20024;-60
2023/08/25 06:50:15;;;;;;;12.68;12.07;;;;;;;;;;5084549;28;20019;-61
2023/08/25 06:52:41;;;;;;;12.15;11.65;;;;;;;;;;5085335;28;20412;-62
2023/08/25 06:55:06;;;;;;;12.50;11.90;;;;;;;;;;5083585;28;20027;-61
2023/08/25 06:57:34;;;;;;;12.48;11.93;;;;;;;;;;5081412;28;21198;-60
2023/08/25 06:59:59;;;;;;;12.60;12.00;;;;;;;;;;5077162;28;20045;-60
2023/08/25 07:02:24;;;;;;;12.73;12.13;;;;;;;;;;5084867;28;20047;-60
2023/08/25 07:04:50;;;;;;;12.85;12.25;;;;;;;;;;5076429;28;20111;-60
2023/08/25 07:07:23;;;;;;;12.53;11.93;;;;;;;;;;5083158;28;20044;-62
2023/08/25 07:09:48;;;;;;;12.32;11.80;;;;;;;;;;5083404;28;20265;-61
2023/08/25 07:12:14;;;;;;;12.37;11.87;;;;;;;;;;5081059;28;20085;-62
2023/08/25 07:14:39;;;;;;;12.40;11.90;;;;;;;;;;5078666;28;20272;-61
2023/08/25 07:17:04;;;;;;;12.73;12.13;;;;;;;;;;5085384;28;20399;-62
2023/08/25 07:19:30;;;;;;;12.17;11.67;;;;;;;;;;5080292;28;20071;-61
2023/08/25 07:21:55;;;;;;;12.07;11.57;;;;;;;;;;5079487;28;20023;-61
2023/08/25 07:24:20;;;;;;;12.10;11.60;;;;;;;;;;5081077;28;20012;-60
2023/08/25 07:26:45;;;;;;;12.20;11.70;;;;;;;;;;5084125;28;20020;-61
2023/08/25 07:29:11;;;;;;;12.37;11.87;;;;;;;;;;5084114;28;20055;-61
2023/08/25 07:31:36;;;;;;;12.25;11.75;;;;;;;;;;5079788;28;20365;-61
2023/08/25 07:34:02;;;;;;;12.13;11.63;;;;;;;;;;5080684;28;20020;-60
2023/08/25 07:36:28;;;;;;;11.85;11.35;;;;;;;;;;5083190;28;20016;-60
2023/08/25 07:38:54;;;;;;;12.40;11.88;;;;;;;;;;5078158;28;20027;-61
2023/08/25 07:41:21;;;;;;;12.13;11.63;;;;;;;;;;5084357;28;20036;-61
2023/08/25 07:43:47;;;;;;;12.65;12.05;;;;;;;;;;5083614;28;20035;-61
2023/08/25 07:46:12;;;;;;;12.65;12.05;;;;;;;;;;5081350;28;20024;-61
2023/08/25 07:48:37;;;;;;;12.47;11.90;;;;;;;;;;5073362;28;20379;-62
2023/08/25 07:51:03;;;;;;;12.43;11.88;;;;;;;;;;5080242;28;20036;-62
2023/08/25 07:53:28;;;;;;;12.25;11.75;;;;;;;;;;5081304;28;20029;-62
2023/08/25 07:55:53;;;;;;;12.25;11.75;;;;;;;;;;5074117;28;20020;-61
2023/08/25 07:58:21;;;;;;;12.23;11.73;;;;;;;;;;5076566;28;20039;-61
2023/08/25 08:00:46;;;;;;;12.25;11.75;;;;;;;;;;5075491;28;20031;-61
2023/08/25 08:03:11;;;;;;;12.23;11.73;;;;;;;;;;5077397;28;20020;-61
2023/08/25 08:05:38;;;;;;;12.15;11.65;;;;;;;;;;5076719;28;20415;-67
2023/08/25 08:08:03;;;;;;;12.57;11.98;;;;;;;;;;5076929;28;20105;-67
2023/08/25 08:10:29;;;;;;;12.18;11.68;;;;;;;;;;5078402;28;20527;-68
2023/08/25 08:12:55;;;;;;;12.25;11.75;;;;;;;;;;5084109;28;20046;-69
2023/08/25 08:15:21;;;;;;;12.30;11.80;;;;;;;;;;5077991;28;20024;-65
2023/08/25 08:17:46;;;;;;;11.93;11.43;;;;;;;;;;5080155;28;20082;-65
2023/08/25 08:20:12;;;;;;;12.37;11.87;;;;;;;;;;5076592;28;20519;-64
2023/08/25 08:22:38;;;;;;;11.82;11.32;;;;;;;;;;5078963;28;21327;-64
2023/08/25 08:25:03;;;;;;;12.05;11.55;;;;;;;;;;5079395;28;20020;-64
2023/08/25 08:27:28;;;;;;;12.18;11.68;;;;;;;;;;5084663;28;20024;-64
2023/08/25 08:29:54;;;;;;;12.50;11.90;;;;;;;;;;5079915;28;20108;-64
2023/08/25 08:32:19;;;;;;;12.37;11.87;;;;;;;;;;5076799;28;20280;-64
2023/08/25 08:34:45;;;;;;;12.30;11.80;;;;;;;;;;5079563;28;20313;-64
2023/08/25 08:37:10;;;;;;;12.00;11.50;;;;;;;;;;5076964;28;20047;-63
2023/08/25 08:39:38;;;;;;;11.98;11.48;;;;;;;;;;5078669;28;20355;-64
2023/08/25 08:42:05;;;;;;;12.23;11.73;;;;;;;;;;5073003;28;20107;-63
2023/08/25 08:44:33;;;;;;;12.55;11.95;;;;;;;;;;5072936;28;20156;-63
2023/08/25 08:46:59;;;;;;;12.18;11.68;;;;;;;;;;5073105;28;20026;-64
2023/08/25 08:49:26;;;;;;;12.10;11.60;;;;;;;;;;5081009;28;20027;-65
2023/08/25 08:51:52;;;;;;;12.60;12.00;;;;;;;;;;5079288;28;20024;-64
2023/08/25 08:54:20;;;;;;;11.98;11.48;;;;;;;;;;5077819;28;20050;-64
2023/08/25 08:56:46;;;;;;;12.30;11.80;;;;;;;;;;5080046;28;20483;-65
2023/08/25 08:59:11;;;;;;;11.93;11.43;;;;;;;;;;5081783;28;20113;-65
2023/08/25 09:01:37;;;;;;;12.65;12.05;;;;;;;;;;5078906;28;20181;-65
2023/08/25 09:04:03;;;;;;;12.70;12.10;;;;;;;;;;5078445;28;20488;-64
2023/08/25 09:06:33;;;;;;;12.50;11.93;;;;;;;;;;5079446;28;20025;-65
2023/08/25 09:08:58;;;;;;;12.27;11.77;;;;;;;;;;5078961;28;20025;-64
2023/08/25 09:11:23;;;;;;;12.48;11.90;;;;;;;;;;5079579;28;20035;-64
2023/08/25 09:13:57;;;;;;;12.70;12.10;;;;;;;;;;5080484;28;20100;-64
2023/08/25 09:16:23;;;;;;;12.48;11.93;;;;;;;;;;5082842;28;20486;-64
2023/08/25 09:18:49;;;;;;;12.27;11.77;;;;;;;;;;5079857;28;20035;-66
2023/08/25 09:21:18;;;;;;;12.18;11.68;;;;;;;;;;5078461;28;20458;-64
2023/08/25 09:23:54;;;;;;;12.30;11.80;;;;;;;;;;5080920;28;20484;-65
2023/08/25 09:26:20;;;;;;;12.98;12.38;;;;;;;;;;5081138;28;20377;-64
2023/08/25 09:28:45;;;;;;;12.18;11.68;;;;;;;;;;5079415;28;20049;-64
2023/08/25 09:31:23;;;;;;;12.53;11.97;;;;;;;;;;5082342;28;20478;-64
2023/08/25 09:33:49;;;;;;;12.00;11.50;;;;;;;;;;5073558;28;20081;-63
2023/08/25 09:36:15;;;;;;;12.20;11.70;;;;;;;;;;5076009;28;20032;-63
2023/08/25 09:38:44;;;;;;;12.10;11.60;;;;;;;;;;5080497;28;20482;-62
2023/08/25 09:41:11;;;;;;;11.90;11.40;;;;;;;;;;5080820;28;20054;-64
2023/08/25 09:43:38;;;;;;;11.90;11.40;;;;;;;;;;5077939;28;20539;-66
2023/08/25 09:46:06;;;;;;;11.68;11.18;;;;;;;;;;5074142;28;20028;-65
2023/08/25 09:48:32;;;;;;;12.43;11.90;;;;;;;;;;5081169;28;20020;-64
2023/08/25 09:50:57;;;;;;;11.93;11.43;;;;;;;;;;5082679;28;20494;-64
2023/08/25 09:53:23;;;;;;;12.15;11.65;;;;;;;;;;5078555;28;20016;-65
2023/08/25 09:55:49;;;;;;;11.95;11.45;;;;;;;;;;5074108;28;20046;-64
2023/08/25 09:58:14;;;;;;;11.82;11.32;;;;;;;;;;5075582;28;20526;-64
2023/08/25 10:00:40;;;;;;;12.18;11.68;;;;;;;;;;5075486;28;20028;-64
2023/08/25 10:03:09;;;;;;;11.93;11.43;;;;;;;;;;5074720;28;20020;-65
2023/08/25 10:05:35;;;;;;;11.90;11.40;;;;;;;;;;5079627;28;20043;-65
2023/08/25 10:08:01;;;;;;;11.73;11.23;;;;;;;;;;5076711;28;20019;-65
2023/08/25 10:10:27;;;;;;;11.90;11.40;;;;;;;;;;5080816;28;20020;-66
2023/08/25 10:12:56;;;;;;;11.98;11.48;;;;;;;;;;5079940;28;20562;-64
2023/08/25 10:15:22;;;;;;;11.98;11.48;;;;;;;;;;5081313;28;20024;-65
2023/08/25 10:17:48;;;;;;;11.82;11.32;;;;;;;;;;5077465;28;20032;-66
2023/08/25 10:20:14;;;;;;;12.15;11.65;;;;;;;;;;5074556;28;20016;-66
2023/08/25 10:22:44;;;;;;;11.80;11.30;;;;;;;;;;5074489;28;20055;-64
2023/08/25 10:25:10;;;;;;;11.98;11.48;;;;;;;;;;5077702;28;20017;-64
2023/08/25 10:27:36;;;;;;;12.13;11.63;;;;;;;;;;5075193;28;20499;-64
2023/08/25 10:30:03;;;;;;;12.00;11.50;;;;;;;;;;5075584;28;20111;-61
2023/08/25 10:32:57;;;;;;;11.88;11.38;;;;;;;;;;5079820;28;20035;-61
2023/08/25 10:35:44;;;;;;;11.80;11.30;;;;;;;;;;5071916;28;20043;-62
2023/08/25 10:38:20;;;;;;;12.05;11.55;;;;;;;;;;5078773;28;20104;-62
2023/08/25 10:40:53;;;;;;;12.20;11.70;;;;;;;;;;5076933;28;20028;-63
2023/08/25 10:43:24;;;;;;;12.17;11.67;;;;;;;;;;5078362;28;20559;-63
2023/08/25 10:45:52;;;;;;;12.13;11.63;;;;;;;;;;5082861;28;20016;-64
2023/08/25 10:48:19;;;;;;;12.23;11.73;;;;;;;;;;5083511;28;20107;-62
2023/08/25 10:50:44;;;;;;;12.52;11.93;;;;;;;;;;5076203;28;20023;-63
2023/08/25 10:53:28;;;;;;;12.15;11.65;;;;;;;;;;5078906;28;20024;-62
2023/08/25 10:55:53;;;;;;;11.98;11.48;;;;;;;;;;5080033;28;20110;-63
2023/08/25 10:58:19;;;;;;;12.00;11.50;;;;;;;;;;5078664;28;20024;-63
2023/08/25 11:00:45;;;;;;;12.00;11.50;;;;;;;;;;5078502;28;20307;-63
2023/08/25 11:03:11;;;;;;;12.57;11.98;;;;;;;;;;5079067;28;20104;-64
2023/08/25 11:05:37;;;;;;;11.93;11.43;;;;;;;;;;5080710;28;20020;-65
2023/08/25 11:08:25;;;;;;;11.50;11.00;;;;;;;;;;5077601;28;20050;-64
2023/08/25 11:11:10;;;;;;;11.95;11.45;;;;;;;;;;5078727;28;20073;-62
2023/08/25 11:13:37;;;;;;;12.45;11.90;;;;;;;;;;5079058;28;20142;-63
2023/08/25 11:16:05;;;;;;;12.05;11.55;;;;;;;;;;5073686;28;20491;-62
2023/08/25 11:18:30;;;;;;;12.30;11.80;;;;;;;;;;5076745;28;20035;-61
2023/08/25 11:20:55;;;;;;;12.00;11.50;;;;;;;;;;5069088;28;20032;-61
2023/08/25 11:23:20;;;;;;;12.20;11.70;;;;;;;;;;5074685;28;20020;-63
2023/08/25 11:25:46;;;;;;;11.83;11.33;;;;;;;;;;5075255;28;20047;-63
2023/08/25 11:28:12;;;;;;;11.90;11.40;;;;;;;;;;5075496;28;20264;-63
2023/08/25 11:30:37;;;;;;;11.65;11.15;;;;;;;;;;5077824;28;20025;-62
2023/08/25 11:33:04;;;;;;;12.05;11.55;;;;;;;;;;5077383;28;20497;-63
2023/08/25 11:35:30;;;;;;;12.30;11.80;;;;;;;;;;5075072;28;20039;-62
2023/08/25 11:37:56;;;;;;;12.10;11.60;;;;;;;;;;5076678;28;20165;-62
2023/08/25 11:40:21;;;;;;;11.82;11.32;;;;;;;;;;5075451;28;20071;-62
2023/08/25 11:42:46;;;;;;;11.73;11.23;;;;;;;;;;5072783;28;20756;-63
2023/08/25 11:45:12;;;;;;;12.27;11.77;;;;;;;;;;5075353;28;20016;-61
2023/08/25 11:47:38;;;;;;;11.88;11.38;;;;;;;;;;5071501;28;20603;-61
2023/08/25 11:50:04;;;;;;;12.18;11.68;;;;;;;;;;5077581;28;20024;-61
2023/08/25 11:52:30;;;;;;;12.27;11.77;;;;;;;;;;5079718;28;20074;-61
2023/08/25 11:54:55;;;;;;;12.05;11.55;;;;;;;;;;5078138;28;20040;-61
2023/08/25 11:57:21;;;;;;;11.83;11.33;;;;;;;;;;5074480;28;20562;-60
2023/08/25 11:59:46;;;;;;;11.88;11.38;;;;;;;;;;5082292;28;20264;-61
2023/08/25 12:02:15;;;;;;;11.57;11.07;;;;;;;;;;5081369;28;20542;-59
2023/08/25 12:04:51;;;;;;;12.13;11.63;;;;;;;;;;5076355;28;20073;-63
2023/08/25 12:07:20;;;;;;;12.23;11.73;;;;;;;;;;5080087;28;20107;-60
2023/08/25 12:09:51;;;;;;;12.00;11.50;;;;;;;;;;5075065;28;20054;-60
2023/08/25 12:12:16;;;;;;;11.90;11.40;;;;;;;;;;5081004;28;20046;-60
2023/08/25 12:14:41;;;;;;;11.90;11.40;;;;;;;;;;5075188;28;20491;-61
2023/08/25 12:17:07;;;;;;;12.20;11.70;;;;;;;;;;5076491;28;20272;-61
2023/08/25 12:19:33;;;;;;;12.15;11.65;;;;;;;;;;5080606;28;20019;-61
2023/08/25 12:22:02;;;;;;;11.80;11.30;;;;;;;;;;5076872;28;20488;-61
2023/08/25 12:24:28;;;;;;;11.98;11.48;;;;;;;;;;5080732;28;20035;-61
2023/08/25 12:26:53;;;;;;;11.93;11.43;;;;;;;;;;5079931;28;20016;-61
2023/08/25 12:29:21;;;;;;;12.07;11.57;;;;;;;;;;5077077;28;20769;-61
2023/08/25 12:31:47;;;;;;;11.93;11.43;;;;;;;;;;5078333;28;20028;-62
2023/08/25 12:34:12;;;;;;;11.63;11.13;;;;;;;;;;5078942;28;20038;-60
2023/08/25 12:36:38;;;;;;;11.93;11.43;;;;;;;;;;5081705;28;20064;-61
2023/08/25 12:39:03;;;;;;;12.18;11.68;;;;;;;;;;5076187;28;20100;-60
2023/08/25 12:41:29;;;;;;;12.10;11.60;;;;;;;;;;5081751;28;20052;-62
2023/08/25 12:43:54;;;;;;;11.60;11.10;;;;;;;;;;5084190;28;20032;-61
2023/08/25 12:46:22;;;;;;;11.82;11.32;;;;;;;;;;5083128;28;20044;-61
2023/08/25 12:48:47;;;;;;;11.68;11.18;;;;;;;;;;5081786;28;20390;-61
2023/08/25 12:51:15;;;;;;;11.82;11.32;;;;;;;;;;5084376;28;20028;-61
2023/08/25 12:53:41;;;;;;;11.75;11.25;;;;;;;;;;5082159;28;20028;-62
2023/08/25 12:56:06;;;;;;;11.73;11.23;;;;;;;;;;5081915;28;20031;-62
2023/08/25 12:58:31;;;;;;;11.80;11.30;;;;;;;;;;5076101;28;20028;-61
2023/08/25 13:00:56;;;;;;;11.80;11.30;;;;;;;;;;5081184;28;20281;-62
2023/08/25 13:03:22;;;;;;;11.40;10.90;;;;;;;;;;5080757;28;20028;-62
2023/08/25 13:05:47;;;;;;;11.80;11.30;;;;;;;;;;5083192;28;20025;-62
2023/08/25 13:08:13;;;;;;;11.75;11.25;;;;;;;;;;5086172;28;20020;-62
2023/08/25 13:10:38;;;;;;;11.73;11.23;;;;;;;;;;5083679;28;20855;-62
2023/08/25 13:13:05;;;;;;;11.48;10.98;;;;;;;;;;5080433;28;20081;-62
2023/08/25 13:15:30;;;;;;;11.65;11.15;;;;;;;;;;5080801;28;20020;-61
2023/08/25 13:17:58;;;;;;;11.65;11.15;;;;;;;;;;5079501;28;20082;-63
2023/08/25 13:20:23;;;;;;;12.45;11.90;;;;;;;;;;5076510;28;20111;-62
2023/08/25 13:22:48;;;;;;;11.63;11.13;;;;;;;;;;5075703;28;20115;-61
2023/08/25 13:25:14;;;;;;;11.80;11.30;;;;;;;;;;5080355;28;20474;-62
2023/08/25 13:27:40;;;;;;;12.15;11.65;;;;;;;;;;5075780;28;20261;-61
2023/08/25 13:30:09;;;;;;;11.95;11.45;;;;;;;;;;5082249;28;20086;-61
2023/08/25 13:32:35;;;;;;;11.98;11.48;;;;;;;;;;5080612;28;20028;-62
2023/08/25 13:35:00;;;;;;;11.95;11.45;;;;;;;;;;5075831;28;20038;-61
2023/08/25 13:37:25;;;;;;;12.07;11.57;;;;;;;;;;5076066;28;20734;-62
2023/08/25 13:39:51;;;;;;;12.10;11.60;;;;;;;;;;5080378;28;20021;-62
2023/08/25 13:42:16;;;;;;;11.82;11.32;;;;;;;;;;5082530;28;20346;-62
2023/08/25 13:44:41;;;;;;;11.63;11.13;;;;;;;;;;5077760;28;20924;-60
2023/08/25 13:47:09;;;;;;;11.70;11.20;;;;;;;;;;5078665;28;20099;-61
2023/08/25 13:49:36;;;;;;;11.60;11.10;;;;;;;;;;5080345;28;20269;-61
2023/08/25 13:52:01;;;;;;;11.90;11.40;;;;;;;;;;5081756;28;20024;-61
2023/08/25 13:54:27;;;;;;;11.88;11.38;;;;;;;;;;5083477;28;20390;-60
2023/08/25 13:56:52;;;;;;;11.90;11.40;;;;;;;;;;5082648;28;20085;-61
2023/08/25 13:59:17;;;;;;;12.20;11.70;;;;;;;;;;5075135;28;20269;-61
2023/08/25 14:01:43;;;;;;;12.20;11.70;;;;;;;;;;5080659;28;20055;-60
2023/08/25 14:04:08;;;;;;;11.98;11.48;;;;;;;;;;5080615;28;20574;-61
2023/08/25 14:06:34;;;;;;;11.82;11.32;;;;;;;;;;5079525;28;20016;-61
2023/08/25 14:08:59;;;;;;;11.70;11.20;;;;;;;;;;5073187;28;20063;-58
2023/08/25 14:11:25;;;;;;;11.80;11.30;;;;;;;;;;5076949;28;20525;-62